Time;durP1;ratioP1;P1;durP2;ratioP2;P2;SDS_P1;SDS_P2;PMS_P1;PMS_P2;Temp;Humidity;BMP_temperature;BMP_pressure;BME280_temperature;BME280_humidity;BME280_pressure;Samples;Min_cycle;Max_cycle;Signal;HPM_P1;HPM_P2
2023/02/11 00:00:35;;;;;;;1.27;1.25;;;;;;;;;;5079600;28;20044;-87
2023/02/11 00:03:02;;;;;;;1.75;1.65;;;;;;;;;;5076707;28;20048;-87
2023/02/11 00:05:28;;;;;;;4.53;3.83;;;;;;;;;;5077730;28;20062;-88
2023/02/11 00:07:57;;;;;;;0.73;0.73;;;;;;;;;;5095957;28;20051;-87
2023/02/11 00:10:23;;;;;;;1.85;1.75;;;;;;;;;;5095117;28;20164;-88
2023/02/11 00:12:50;;;;;;;0.82;0.82;;;;;;;;;;5095585;28;20044;-87
2023/02/11 00:15:16;;;;;;;2.67;2.58;;;;;;;;;;5095104;28;20497;-88
2023/02/11 00:17:43;;;;;;;1.65;1.55;;;;;;;;;;5095091;28;20109;-87
2023/02/11 00:20:10;;;;;;;1.70;1.63;;;;;;;;;;5094782;28;20055;-87
2023/02/11 00:22:36;;;;;;;2.20;2.10;;;;;;;;;;5093070;28;20109;-87
2023/02/11 00:25:04;;;;;;;3.65;3.50;;;;;;;;;;5094989;28;20051;-87
2023/02/11 00:27:31;;;;;;;2.85;2.75;;;;;;;;;;5095168;28;20113;-87
2023/02/11 00:29:59;;;;;;;1.92;1.83;;;;;;;;;;5094456;28;20508;-85
2023/02/11 00:32:25;;;;;;;2.42;2.28;;;;;;;;;;5094462;28;20455;-86
2023/02/11 00:34:54;;;;;;;2.53;2.33;;;;;;;;;;5094729;28;20093;-86
2023/02/11 00:37:20;;;;;;;0.68;0.68;;;;;;;;;;5094724;28;20044;-87
2023/02/11 00:39:47;;;;;;;1.83;1.73;;;;;;;;;;5093243;28;20044;-86
2023/02/11 00:42:15;;;;;;;1.10;1.10;;;;;;;;;;5094378;28;20047;-86
2023/02/11 00:44:42;;;;;;;2.25;2.15;;;;;;;;;;5094861;28;20078;-86
2023/02/11 00:47:08;;;;;;;5.10;4.18;;;;;;;;;;5094102;28;20052;-86
2023/02/11 00:49:35;;;;;;;2.45;1.17;;;;;;;;;;5094407;28;20067;-86
2023/02/11 00:52:02;;;;;;;1.00;1.00;;;;;;;;;;5094221;28;20050;-87
2023/02/11 00:54:28;;;;;;;1.63;1.58;;;;;;;;;;5094045;28;20051;-86
2023/02/11 00:56:55;;;;;;;0.73;0.73;;;;;;;;;;5092468;28;20463;-86
2023/02/11 00:59:23;;;;;;;2.10;2.00;;;;;;;;;;5094035;28;20048;-87
2023/02/11 01:01:49;;;;;;;2.10;2.00;;;;;;;;;;5093869;28;20481;-86
2023/02/11 01:04:16;;;;;;;1.30;1.27;;;;;;;;;;5094348;28;20493;-86
2023/02/11 01:06:42;;;;;;;1.38;1.35;;;;;;;;;;5094315;28;20048;-86
2023/02/11 01:09:09;;;;;;;1.50;1.40;;;;;;;;;;5094447;28;20113;-86
2023/02/11 01:11:35;;;;;;;1.63;1.52;;;;;;;;;;5094047;28;20051;-87
2023/02/11 01:14:02;;;;;;;1.92;1.83;;;;;;;;;;5092164;28;20411;-86
2023/02/11 01:16:30;;;;;;;0.65;0.65;;;;;;;;;;5093996;28;20052;-87
2023/02/11 01:18:57;;;;;;;1.63;1.58;;;;;;;;;;5093903;28;20048;-86
2023/02/11 01:21:24;;;;;;;2.75;2.65;;;;;;;;;;5092178;28;20123;-87
2023/02/11 01:23:50;;;;;;;1.05;1.05;;;;;;;;;;5093735;28;20102;-86
2023/02/11 01:26:17;;;;;;;0.77;0.77;;;;;;;;;;5093948;28;20048;-87
2023/02/11 01:28:43;;;;;;;0.68;0.68;;;;;;;;;;5093865;28;20052;-87
2023/02/11 01:31:10;;;;;;;0.50;0.50;;;;;;;;;;5093559;28;20463;-86
2023/02/11 01:33:38;;;;;;;1.15;1.15;;;;;;;;;;5093014;28;20052;-86
2023/02/11 01:36:05;;;;;;;0.88;0.88;;;;;;;;;;5093096;28;20101;-85
2023/02/11 01:38:32;;;;;;;1.45;1.42;;;;;;;;;;5090685;28;20052;-86
2023/02/11 01:40:59;;;;;;;0.85;0.85;;;;;;;;;;5093503;28;20048;-86
2023/02/11 01:43:26;;;;;;;3.75;3.53;;;;;;;;;;5093279;28;20389;-86
2023/02/11 01:45:58;;;;;;;0.50;0.50;;;;;;;;;;5093114;28;20044;-87
2023/02/11 01:48:27;;;;;;;0.63;0.63;;;;;;;;;;5093282;28;20059;-86
2023/02/11 01:50:57;;;;;;;0.75;0.75;;;;;;;;;;5093409;28;20051;-86
2023/02/11 01:58:53;;;;;;;2.22;2.10;;;;;;;;;;5073147;28;19916;-86
2023/02/11 02:01:23;;;;;;;0.50;0.50;;;;;;;;;;5072635;28;20052;-87
2023/02/11 02:03:50;;;;;;;1.73;1.65;;;;;;;;;;5072856;28;20049;-89
2023/02/11 02:06:20;;;;;;;2.17;1.98;;;;;;;;;;5072364;28;20547;-88
2023/02/11 02:08:50;;;;;;;1.08;1.08;;;;;;;;;;5090431;28;20048;-88
2023/02/11 02:11:17;;;;;;;0.52;0.52;;;;;;;;;;5092069;28;20135;-85
2023/02/11 02:13:44;;;;;;;0.43;0.43;;;;;;;;;;5092160;28;20056;-87
2023/02/11 02:16:12;;;;;;;1.17;1.17;;;;;;;;;;5093157;28;20044;-88
2023/02/11 02:18:43;;;;;;;3.03;1.45;;;;;;;;;;5093205;28;20451;-87
2023/02/11 02:21:36;;;;;;;0.75;0.75;;;;;;;;;;5092941;28;20549;-87
2023/02/11 02:24:21;;;;;;;1.85;1.73;;;;;;;;;;5092902;28;20056;-88
2023/02/11 02:27:03;;;;;;;0.85;0.85;;;;;;;;;;5092972;28;20048;-88
2023/02/11 02:29:44;;;;;;;0.65;0.65;;;;;;;;;;5081451;28;20086;-87
2023/02/11 02:32:26;;;;;;;1.42;1.38;;;;;;;;;;5072045;28;20040;-87
2023/02/11 02:34:57;;;;;;;1.60;1.50;;;;;;;;;;5072667;28;20052;-88
2023/02/11 02:37:27;;;;;;;1.27;1.17;;;;;;;;;;5072948;28;20049;-88
2023/02/11 02:39:53;;;;;;;0.93;0.93;;;;;;;;;;5072563;28;20044;-88
2023/02/11 02:42:20;;;;;;;1.63;1.55;;;;;;;;;;5073055;28;20049;-87
2023/02/11 02:44:48;;;;;;;0.60;0.60;;;;;;;;;;5073729;28;20474;-87
2023/02/11 02:47:15;;;;;;;1.13;1.13;;;;;;;;;;5093680;28;20489;-86
2023/02/11 02:49:43;;;;;;;0.80;0.80;;;;;;;;;;5096888;28;20044;-86
2023/02/11 02:52:15;;;;;;;1.08;1.08;;;;;;;;;;5096741;28;20059;-85
2023/02/11 02:54:57;;;;;;;3.17;3.05;;;;;;;;;;5096841;28;20047;-86
2023/02/11 02:57:28;;;;;;;1.75;1.65;;;;;;;;;;5096255;28;20044;-86
2023/02/11 03:00:01;;;;;;;1.00;1.00;;;;;;;;;;5096721;28;20052;-87
2023/02/11 03:02:30;;;;;;;1.80;1.75;;;;;;;;;;5091952;28;20490;-87
2023/02/11 03:05:02;;;;;;;0.85;0.85;;;;;;;;;;5093268;28;20048;-87
2023/02/11 03:07:35;;;;;;;0.75;0.75;;;;;;;;;;5096973;28;20109;-87
2023/02/11 03:10:02;;;;;;;3.85;3.63;;;;;;;;;;5096713;28;20485;-87
2023/02/11 03:12:30;;;;;;;1.75;1.65;;;;;;;;;;5096380;28;20060;-86
2023/02/11 03:14:58;;;;;;;4.47;3.78;;;;;;;;;;5096414;28;20090;-87
2023/02/11 03:17:26;;;;;;;0.55;0.55;;;;;;;;;;5096250;28;20044;-86
2023/02/11 03:19:53;;;;;;;0.63;0.63;;;;;;;;;;5096137;28;20048;-86
2023/02/11 03:22:22;;;;;;;1.70;1.60;;;;;;;;;;5095336;28;20069;-87
2023/02/11 03:24:49;;;;;;;1.05;1.05;;;;;;;;;;5078217;28;20493;-86
2023/02/11 03:27:20;;;;;;;1.58;1.48;;;;;;;;;;5075621;28;20049;-87
2023/02/11 03:29:53;;;;;;;2.58;1.88;;;;;;;;;;5075694;28;20048;-86
2023/02/11 03:32:23;;;;;;;2.17;1.98;;;;;;;;;;5075390;28;20493;-86
2023/02/11 03:34:52;;;;;;;1.30;1.30;;;;;;;;;;5075839;28;20113;-86
2023/02/11 03:37:24;;;;;;;0.73;0.73;;;;;;;;;;5075584;28;20045;-86
2023/02/11 03:39:52;;;;;;;0.98;0.95;;;;;;;;;;5075372;28;20052;-87
2023/02/11 03:42:19;;;;;;;2.80;2.63;;;;;;;;;;5088867;28;20101;-87
2023/02/11 03:44:49;;;;;;;1.73;1.63;;;;;;;;;;5095255;28;20493;-86
2023/02/11 03:47:17;;;;;;;1.83;1.73;;;;;;;;;;5095372;28;20374;-86
2023/02/11 03:49:45;;;;;;;1.45;1.42;;;;;;;;;;5095965;28;20101;-86
2023/02/11 03:52:12;;;;;;;1.75;1.65;;;;;;;;;;5094863;28;20097;-86
2023/02/11 03:54:41;;;;;;;1.48;1.38;;;;;;;;;;5095569;28;20044;-86
2023/02/11 03:57:08;;;;;;;2.88;2.67;;;;;;;;;;5095466;28;20143;-86
2023/02/11 03:59:49;;;;;;;4.00;3.80;;;;;;;;;;5088362;28;20094;-87
2023/02/11 04:02:15;;;;;;;1.38;1.38;;;;;;;;;;5075500;28;20402;-87
2023/02/11 04:04:42;;;;;;;0.70;0.70;;;;;;;;;;5075598;28;20049;-87
2023/02/11 04:07:09;;;;;;;1.40;1.30;;;;;;;;;;5075244;28;20508;-87
2023/02/11 04:09:35;;;;;;;0.90;0.90;;;;;;;;;;5075665;28;20048;-87
2023/02/11 04:12:04;;;;;;;2.55;2.38;;;;;;;;;;5075155;28;20464;-86
2023/02/11 04:14:30;;;;;;;0.88;0.88;;;;;;;;;;5074998;28;20098;-86
2023/02/11 04:16:57;;;;;;;0.70;0.70;;;;;;;;;;5078973;28;20090;-87
2023/02/11 04:19:23;;;;;;;1.10;1.10;;;;;;;;;;5074798;28;20052;-86
2023/02/11 04:21:50;;;;;;;1.95;1.85;;;;;;;;;;5074479;28;20050;-86
2023/02/11 04:24:16;;;;;;;0.65;0.65;;;;;;;;;;5074724;28;20044;-85
2023/02/11 04:26:43;;;;;;;1.67;1.58;;;;;;;;;;5074395;28;20049;-86
2023/02/11 04:29:11;;;;;;;1.90;1.80;;;;;;;;;;5074551;28;20052;-86
2023/02/11 04:31:37;;;;;;;1.92;1.83;;;;;;;;;;5074609;28;20052;-86
2023/02/11 04:34:04;;;;;;;1.35;1.35;;;;;;;;;;5081793;28;20051;-86
2023/02/11 04:36:30;;;;;;;1.58;1.48;;;;;;;;;;5094993;28;20048;-86
2023/02/11 04:38:57;;;;;;;3.53;3.33;;;;;;;;;;5094974;28;20052;-87
2023/02/11 04:41:23;;;;;;;1.10;1.10;;;;;;;;;;5095358;28;20048;-86
2023/02/11 04:43:50;;;;;;;2.35;2.25;;;;;;;;;;5094414;28;20492;-85
2023/02/11 04:46:18;;;;;;;1.27;1.25;;;;;;;;;;5094999;28;20082;-86
2023/02/11 04:48:44;;;;;;;0.77;0.77;;;;;;;;;;5094792;28;20075;-86
2023/02/11 04:51:11;;;;;;;1.55;1.52;;;;;;;;;;5092157;28;20071;-86
2023/02/11 04:53:37;;;;;;;1.63;1.60;;;;;;;;;;5094934;28;20052;-86
2023/02/11 04:56:04;;;;;;;1.90;1.80;;;;;;;;;;5094923;28;20056;-87
2023/02/11 04:58:30;;;;;;;1.05;1.05;;;;;;;;;;5094552;28;20117;-85
2023/02/11 05:01:04;;;;;;;1.65;1.58;;;;;;;;;;5094501;28;20044;-87
2023/02/11 05:03:32;;;;;;;3.55;3.30;;;;;;;;;;5094657;28;20056;-86
2023/02/11 05:05:59;;;;;;;1.02;0.98;;;;;;;;;;5093012;28;20104;-87
2023/02/11 05:08:25;;;;;;;1.00;1.00;;;;;;;;;;5073481;28;20134;-86
2023/02/11 05:10:52;;;;;;;1.30;1.27;;;;;;;;;;5073709;28;20114;-86
2023/02/11 05:13:18;;;;;;;3.22;3.03;;;;;;;;;;5074309;28;20074;-86
2023/02/11 05:15:45;;;;;;;1.00;1.00;;;;;;;;;;5074288;28;20052;-86
2023/02/11 05:18:13;;;;;;;2.40;2.30;;;;;;;;;;5074044;28;20049;-85
2023/02/11 05:20:41;;;;;;;2.95;2.85;;;;;;;;;;5073288;28;20512;-85
2023/02/11 05:23:08;;;;;;;1.10;1.10;;;;;;;;;;5080458;28;20052;-86
2023/02/11 05:25:34;;;;;;;3.25;3.15;;;;;;;;;;5093796;28;20048;-86
2023/02/11 05:28:01;;;;;;;2.00;1.90;;;;;;;;;;5093685;28;20093;-87
2023/02/11 05:30:28;;;;;;;2.30;2.20;;;;;;;;;;5094029;28;20079;-87
2023/02/11 05:32:54;;;;;;;1.83;1.73;;;;;;;;;;5093578;28;20109;-88
2023/02/11 05:35:21;;;;;;;1.60;1.50;;;;;;;;;;5093574;28;20094;-87
2023/02/11 05:37:49;;;;;;;0.73;0.73;;;;;;;;;;5093355;28;20386;-87
2023/02/11 05:40:16;;;;;;;0.68;0.68;;;;;;;;;;5092455;28;20044;-86
2023/02/11 05:42:42;;;;;;;2.08;1.98;;;;;;;;;;5093690;28;20164;-86
2023/02/11 05:45:09;;;;;;;1.00;1.00;;;;;;;;;;5093468;28;20044;-86
2023/02/11 05:47:36;;;;;;;0.57;0.57;;;;;;;;;;5093398;28;20097;-86
2023/02/11 05:50:02;;;;;;;3.35;3.15;;;;;;;;;;5093831;28;20069;-87
2023/02/11 05:52:29;;;;;;;1.50;1.40;;;;;;;;;;5093408;28;20471;-88
2023/02/11 05:54:56;;;;;;;1.63;1.52;;;;;;;;;;5093680;28;20412;-88
2023/02/11 05:57:23;;;;;;;1.75;1.65;;;;;;;;;;5052215;28;20052;-87
2023/02/11 05:59:49;;;;;;;1.52;1.42;;;;;;;;;;5053279;28;20045;-88
2023/02/11 06:02:19;;;;;;;1.88;1.77;;;;;;;;;;5053409;28;20053;-87
2023/02/11 06:04:46;;;;;;;1.83;1.73;;;;;;;;;;5052306;28;20045;-86
2023/02/11 06:07:12;;;;;;;2.17;2.08;;;;;;;;;;5052558;28;20920;-87
2023/02/11 06:09:39;;;;;;;0.80;0.80;;;;;;;;;;5052448;28;20063;-88
2023/02/11 06:12:07;;;;;;;1.35;1.27;;;;;;;;;;5053038;28;20103;-87
2023/02/11 06:14:34;;;;;;;2.72;2.63;;;;;;;;;;5050747;28;20048;-87
2023/02/11 06:17:00;;;;;;;1.45;1.42;;;;;;;;;;5052351;28;20045;-87
2023/02/11 06:19:27;;;;;;;0.55;0.55;;;;;;;;;;5055073;28;21356;-87
2023/02/11 06:21:53;;;;;;;2.17;2.08;;;;;;;;;;5057128;28;20053;-87
2023/02/11 06:24:20;;;;;;;0.82;0.82;;;;;;;;;;5056653;28;20102;-87
2023/02/11 06:26:46;;;;;;;3.42;3.17;;;;;;;;;;5056172;28;20049;-86
2023/02/11 06:29:14;;;;;;;1.65;1.58;;;;;;;;;;5056491;28;20053;-86
2023/02/11 06:31:41;;;;;;;1.02;1.02;;;;;;;;;;5050311;28;20049;-85
2023/02/11 06:34:08;;;;;;;1.02;1.02;;;;;;;;;;5058042;28;20041;-86
2023/02/11 06:36:35;;;;;;;1.00;0.98;;;;;;;;;;5057646;28;20060;-85
2023/02/11 06:39:02;;;;;;;1.63;1.55;;;;;;;;;;5057234;28;20056;-85
2023/02/11 06:41:28;;;;;;;1.23;1.20;;;;;;;;;;5056939;28;20053;-86
2023/02/11 06:43:55;;;;;;;2.22;2.13;;;;;;;;;;5055292;28;20045;-87
2023/02/11 06:46:23;;;;;;;1.65;1.60;;;;;;;;;;5039074;28;20053;-87
2023/02/11 06:48:49;;;;;;;2.38;2.28;;;;;;;;;;5049767;28;20045;-87
2023/02/11 06:51:16;;;;;;;1.20;1.17;;;;;;;;;;5056834;28;20045;-87
2023/02/11 06:53:43;;;;;;;0.88;0.88;;;;;;;;;;5056498;28;20132;-87
2023/02/11 06:56:11;;;;;;;0.95;0.95;;;;;;;;;;5077005;28;20056;-87
2023/02/11 06:58:38;;;;;;;1.20;1.10;;;;;;;;;;5096669;28;20097;-86
2023/02/11 07:01:05;;;;;;;1.10;1.10;;;;;;;;;;5096762;28;20451;-87
2023/02/11 07:03:35;;;;;;;0.88;0.88;;;;;;;;;;5097166;28;20452;-86
2023/02/11 07:06:01;;;;;;;1.67;1.40;;;;;;;;;;5096137;28;20040;-86
2023/02/11 07:08:28;;;;;;;1.58;1.40;;;;;;;;;;5096833;28;20116;-87
2023/02/11 07:10:54;;;;;;;1.02;1.00;;;;;;;;;;5096907;28;20048;-86
2023/02/11 07:13:21;;;;;;;1.45;1.40;;;;;;;;;;5096503;28;20110;-85
2023/02/11 07:15:48;;;;;;;1.08;1.08;;;;;;;;;;5096123;28;20546;-87
2023/02/11 07:18:14;;;;;;;2.85;2.20;;;;;;;;;;5096540;28;20052;-86
2023/02/11 07:20:42;;;;;;;2.50;2.40;;;;;;;;;;5096442;28;20052;-86
2023/02/11 07:23:09;;;;;;;1.65;1.55;;;;;;;;;;5094937;28;20554;-86
2023/02/11 07:25:38;;;;;;;1.60;1.50;;;;;;;;;;5096016;28;20044;-87
2023/02/11 07:28:05;;;;;;;0.70;0.70;;;;;;;;;;5096398;28;20131;-87
2023/02/11 07:30:31;;;;;;;1.40;1.20;;;;;;;;;;5096390;28;20385;-87
2023/02/11 07:32:58;;;;;;;1.15;1.15;;;;;;;;;;5097029;28;20048;-88
2023/02/11 07:35:25;;;;;;;2.20;2.10;;;;;;;;;;5096137;28;20051;-88
2023/02/11 07:37:53;;;;;;;4.78;4.38;;;;;;;;;;5096487;28;20502;-86
2023/02/11 07:40:19;;;;;;;2.65;2.47;;;;;;;;;;5102810;28;20047;-88
2023/02/11 07:42:47;;;;;;;2.35;2.25;;;;;;;;;;5094975;28;20052;-87
2023/02/11 07:45:15;;;;;;;1.65;1.58;;;;;;;;;;5095786;28;20087;-86
2023/02/11 07:47:42;;;;;;;3.05;2.58;;;;;;;;;;5095625;28;20096;-86
2023/02/11 07:50:09;;;;;;;2.75;2.45;;;;;;;;;;5095272;28;20531;-86
2023/02/11 07:52:35;;;;;;;2.17;2.08;;;;;;;;;;5095712;28;20052;-86
2023/02/11 07:55:03;;;;;;;1.23;1.23;;;;;;;;;;5095443;28;20048;-85
2023/02/11 07:57:30;;;;;;;1.35;1.30;;;;;;;;;;5091981;28;20047;-86
2023/02/11 07:59:56;;;;;;;2.17;2.08;;;;;;;;;;5096120;28;20185;-86
2023/02/11 08:02:23;;;;;;;2.08;1.92;;;;;;;;;;5096414;28;20467;-87
2023/02/11 08:04:49;;;;;;;2.75;2.60;;;;;;;;;;5095772;28;20044;-86
2023/02/11 08:07:16;;;;;;;2.53;2.42;;;;;;;;;;5095585;28;20071;-86
2023/02/11 08:09:43;;;;;;;1.90;1.80;;;;;;;;;;5095900;28;20056;-86
2023/02/11 08:12:11;;;;;;;2.88;2.78;;;;;;;;;;5095064;28;20051;-85
2023/02/11 08:14:37;;;;;;;3.33;3.13;;;;;;;;;;5082865;28;20049;-86
2023/02/11 08:17:04;;;;;;;4.25;3.97;;;;;;;;;;5074387;28;20071;-86
2023/02/11 08:19:30;;;;;;;1.25;1.23;;;;;;;;;;5077986;28;20051;-85
2023/02/11 08:21:58;;;;;;;1.52;1.45;;;;;;;;;;5095542;28;20052;-86
2023/02/11 08:24:25;;;;;;;2.58;2.47;;;;;;;;;;5094993;28;20040;-85
2023/02/11 08:26:51;;;;;;;5.03;3.95;;;;;;;;;;5094887;28;20052;-85
2023/02/11 08:29:19;;;;;;;3.25;3.05;;;;;;;;;;5094840;28;20063;-86
2023/02/11 08:31:47;;;;;;;3.08;2.95;;;;;;;;;;5093631;28;20055;-86
2023/02/11 08:34:17;;;;;;;4.15;3.05;;;;;;;;;;5094071;28;20085;-86
2023/02/11 08:36:43;;;;;;;2.33;2.17;;;;;;;;;;5094669;28;20567;-86
2023/02/11 08:39:12;;;;;;;2.45;2.25;;;;;;;;;;5094779;28;20048;-86
2023/02/11 08:41:39;;;;;;;4.95;3.83;;;;;;;;;;5094394;28;20056;-87
2023/02/11 08:44:06;;;;;;;2.30;2.17;;;;;;;;;;5094909;28;20048;-87
2023/02/11 08:46:34;;;;;;;2.28;2.08;;;;;;;;;;5094971;28;20047;-86
2023/02/11 08:49:00;;;;;;;4.13;3.92;;;;;;;;;;5093291;28;20040;-86
2023/02/11 08:51:29;;;;;;;2.47;2.38;;;;;;;;;;5093834;28;20048;-86
2023/02/11 08:53:56;;;;;;;2.58;2.42;;;;;;;;;;5093874;28;20044;-85
2023/02/11 08:56:23;;;;;;;2.60;2.40;;;;;;;;;;5094139;28;20056;-87
2023/02/11 08:58:50;;;;;;;3.58;3.35;;;;;;;;;;5094204;28;20040;-87
2023/02/11 09:01:19;;;;;;;4.28;3.28;;;;;;;;;;5094301;28;20044;-86
2023/02/11 09:03:47;;;;;;;3.20;2.80;;;;;;;;;;5094456;28;20139;-86
2023/02/11 09:06:14;;;;;;;5.63;2.85;;;;;;;;;;5093197;28;20048;-87
2023/02/11 09:08:42;;;;;;;3.03;2.88;;;;;;;;;;5093838;28;20098;-87
2023/02/11 09:11:09;;;;;;;3.22;3.03;;;;;;;;;;5094349;28;20055;-87
2023/02/11 09:13:35;;;;;;;3.58;3.15;;;;;;;;;;5094679;28;20044;-87
2023/02/11 09:16:03;;;;;;;3.35;1.70;;;;;;;;;;5093761;28;20048;-89
2023/02/11 09:18:30;;;;;;;4.18;2.72;;;;;;;;;;5094688;28;20043;-87
2023/02/11 09:21:03;;;;;;;3.83;3.63;;;;;;;;;;5090537;28;20048;-86
2023/02/11 09:23:30;;;;;;;1.63;1.52;;;;;;;;;;5073385;28;20054;-87
2023/02/11 09:25:56;;;;;;;2.45;2.35;;;;;;;;;;5073780;28;20140;-86
2023/02/11 09:28:23;;;;;;;7.95;2.70;;;;;;;;;;5073792;28;20067;-87
2023/02/11 09:30:49;;;;;;;2.67;2.45;;;;;;;;;;5073617;28;20754;-87
2023/02/11 09:33:16;;;;;;;4.15;3.63;;;;;;;;;;5073865;28;20041;-87
2023/02/11 09:35:42;;;;;;;2.25;2.15;;;;;;;;;;5086674;28;20117;-87
2023/02/11 09:38:10;;;;;;;2.80;2.65;;;;;;;;;;5092996;28;20524;-87
2023/02/11 09:40:37;;;;;;;10.52;4.38;;;;;;;;;;5093515;28;20052;-87
2023/02/11 09:43:05;;;;;;;3.95;2.88;;;;;;;;;;5094098;28;20074;-86
2023/02/11 09:45:32;;;;;;;3.08;2.90;;;;;;;;;;5094485;28;20063;-86
2023/02/11 09:48:00;;;;;;;2.92;2.72;;;;;;;;;;5093324;28;20051;-87
2023/02/11 09:50:29;;;;;;;6.03;2.90;;;;;;;;;;5091624;28;20047;-86
2023/02/11 09:52:58;;;;;;;2.88;2.30;;;;;;;;;;5092314;28;20047;-87
2023/02/11 09:55:27;;;;;;;5.30;2.65;;;;;;;;;;5095110;28;20055;-86
2023/02/11 09:57:54;;;;;;;2.33;2.22;;;;;;;;;;5098564;28;20062;-86
2023/02/11 10:00:22;;;;;;;3.50;3.22;;;;;;;;;;5104987;28;20047;-87
2023/02/11 10:02:58;;;;;;;3.05;2.85;;;;;;;;;;5105070;28;20048;-86
2023/02/11 10:05:41;;;;;;;2.85;2.75;;;;;;;;;;5103142;28;20051;-86
2023/02/11 10:08:11;;;;;;;3.35;3.05;;;;;;;;;;5094322;28;20048;-86
2023/02/11 10:10:47;;;;;;;2.92;2.80;;;;;;;;;;5076162;28;20064;-86
2023/02/11 10:13:24;;;;;;;3.42;3.22;;;;;;;;;;5072977;28;20052;-86
2023/02/11 10:15:54;;;;;;;2.50;2.40;;;;;;;;;;5072717;28;20052;-86
2023/02/11 10:18:38;;;;;;;3.75;3.45;;;;;;;;;;5072819;28;20106;-86
2023/02/11 10:21:10;;;;;;;4.10;2.83;;;;;;;;;;5072913;28;20110;-86
2023/02/11 10:23:37;;;;;;;3.60;2.58;;;;;;;;;;5073630;28;20068;-87
2023/02/11 10:26:10;;;;;;;4.82;4.45;;;;;;;;;;5082326;28;20094;-86
2023/02/11 10:28:38;;;;;;;4.88;4.07;;;;;;;;;;5092906;28;20055;-88
2023/02/11 10:31:06;;;;;;;4.30;4.10;;;;;;;;;;5093300;28;20044;-87
2023/02/11 10:33:36;;;;;;;2.08;1.98;;;;;;;;;;5093906;28;20100;-85
2023/02/11 10:36:04;;;;;;;4.45;2.67;;;;;;;;;;5093478;28;20055;-88
2023/02/11 10:38:31;;;;;;;4.50;4.25;;;;;;;;;;5092714;28;20063;-87
2023/02/11 10:40:58;;;;;;;2.67;2.58;;;;;;;;;;5091892;28;20048;-88
2023/02/11 10:43:28;;;;;;;3.35;3.15;;;;;;;;;;5077858;28;20070;-88
2023/02/11 10:45:55;;;;;;;5.30;4.90;;;;;;;;;;5072296;28;20052;-86
2023/02/11 10:48:42;;;;;;;4.57;4.15;;;;;;;;;;5073180;28;20045;-87
2023/02/11 10:51:15;;;;;;;5.85;5.47;;;;;;;;;;5072153;28;20098;-87
2023/02/11 10:53:42;;;;;;;4.32;4.03;;;;;;;;;;5074218;28;20481;-86
2023/02/11 10:56:10;;;;;;;4.85;4.60;;;;;;;;;;5082353;28;20052;-86
2023/02/11 10:58:41;;;;;;;3.60;3.40;;;;;;;;;;5091835;28;20053;-87
2023/02/11 11:01:08;;;;;;;4.47;4.10;;;;;;;;;;5092567;28;20048;-86
2023/02/11 11:03:37;;;;;;;2.78;2.63;;;;;;;;;;5092519;28;20134;-87
2023/02/11 11:06:05;;;;;;;2.42;2.22;;;;;;;;;;5094417;28;20048;-87
2023/02/11 11:08:40;;;;;;;5.65;5.18;;;;;;;;;;5096924;28;20131;-86
2023/02/11 11:11:07;;;;;;;3.70;3.38;;;;;;;;;;5096857;28;20051;-87
2023/02/11 11:13:35;;;;;;;3.33;3.13;;;;;;;;;;5096633;28;20105;-87
2023/02/11 11:16:15;;;;;;;4.65;4.25;;;;;;;;;;5094454;28;20051;-87
2023/02/11 11:18:42;;;;;;;2.83;2.55;;;;;;;;;;5076045;28;20433;-87
2023/02/11 11:21:13;;;;;;;2.92;2.75;;;;;;;;;;5075748;28;20498;-85
2023/02/11 11:23:40;;;;;;;4.03;3.80;;;;;;;;;;5075852;28;20123;-85
2023/02/11 11:26:08;;;;;;;3.25;2.97;;;;;;;;;;5082179;28;20043;-85
2023/02/11 11:28:37;;;;;;;5.25;4.85;;;;;;;;;;5096199;28;20052;-85
2023/02/11 11:31:04;;;;;;;3.30;3.10;;;;;;;;;;5095964;28;20117;-85
2023/02/11 11:33:34;;;;;;;5.80;5.40;;;;;;;;;;5096259;28;20056;-85
2023/02/11 11:36:03;;;;;;;4.20;3.88;;;;;;;;;;5093880;28;20040;-86
2023/02/11 11:38:31;;;;;;;3.67;3.38;;;;;;;;;;5095938;28;20101;-86
2023/02/11 11:41:29;;;;;;;5.60;5.18;;;;;;;;;;5095562;28;20123;-86
2023/02/11 11:43:56;;;;;;;3.72;3.53;;;;;;;;;;5013433;28;20049;-85
2023/02/11 11:46:24;;;;;;;3.97;3.78;;;;;;;;;;5013167;28;20679;-85
2023/02/11 11:48:54;;;;;;;5.80;4.88;;;;;;;;;;5013314;28;20140;-85
2023/02/11 11:51:20;;;;;;;5.47;5.07;;;;;;;;;;5011294;28;20050;-86
2023/02/11 11:53:51;;;;;;;3.40;3.10;;;;;;;;;;5013318;28;20054;-86
2023/02/11 11:56:20;;;;;;;3.85;3.63;;;;;;;;;;5012874;28;20112;-87
2023/02/11 11:58:46;;;;;;;4.38;4.07;;;;;;;;;;5013006;28;20054;-87
2023/02/11 12:01:18;;;;;;;3.38;2.75;;;;;;;;;;5013212;28;20049;-88
2023/02/11 12:04:00;;;;;;;5.45;4.57;;;;;;;;;;5013001;28;20050;-87
2023/02/11 12:06:31;;;;;;;3.60;3.00;;;;;;;;;;5013095;28;20046;-87
2023/02/11 12:09:02;;;;;;;5.30;4.90;;;;;;;;;;5011897;28;20141;-88
2023/02/11 12:11:33;;;;;;;3.80;3.50;;;;;;;;;;5009543;28;20054;-88
2023/02/11 12:14:12;;;;;;;3.70;3.33;;;;;;;;;;5012991;28;20045;-88
2023/02/11 12:16:45;;;;;;;4.95;4.65;;;;;;;;;;5012611;28;20058;-88
2023/02/11 12:19:26;;;;;;;6.13;5.63;;;;;;;;;;5072298;28;20051;-88
2023/02/11 12:22:00;;;;;;;2.85;2.65;;;;;;;;;;5072283;28;20494;-88
2023/02/11 12:24:33;;;;;;;2.17;2.08;;;;;;;;;;5075416;28;20127;-88
2023/02/11 12:27:02;;;;;;;4.80;4.43;;;;;;;;;;5077895;28;20043;-87
2023/02/11 12:29:35;;;;;;;3.80;3.50;;;;;;;;;;5093469;28;20123;-87
2023/02/11 12:32:13;;;;;;;5.07;4.78;;;;;;;;;;5094709;28;20044;-87
2023/02/11 12:34:45;;;;;;;4.57;4.28;;;;;;;;;;5094466;28;20052;-87
2023/02/11 12:37:18;;;;;;;5.00;4.63;;;;;;;;;;5094899;28;20048;-87
2023/02/11 12:39:50;;;;;;;4.68;4.40;;;;;;;;;;5094467;28;20048;-87
2023/02/11 12:45:21;;;;;;;4.80;4.28;;;;;;;;;;5093124;28;20412;-87
2023/02/11 12:48:11;;;;;;;3.83;2.38;;;;;;;;;;5108565;28;20052;-88
2023/02/11 12:50:42;;;;;;;5.00;4.45;;;;;;;;;;5112810;28;20048;-88
2023/02/11 12:53:11;;;;;;;;;;;;;;;;;;5103057;28;20032;-88
2023/02/11 12:55:40;;;;;;;2.80;2.67;;;;;;;;;;5103110;28;19927;-89
2023/02/11 12:58:12;;;;;;;4.45;4.22;;;;;;;;;;5096319;28;20059;-88
2023/02/11 13:00:46;;;;;;;6.30;5.40;;;;;;;;;;5097312;28;20070;-89
2023/02/11 13:03:16;;;;;;;9.32;3.70;;;;;;;;;;5100982;28;20134;-88
2023/02/11 13:05:46;;;;;;;4.50;2.30;;;;;;;;;;5099749;28;20105;-89
2023/02/11 13:08:18;;;;;;;4.60;2.90;;;;;;;;;;5097534;28;20087;-88
2023/02/11 13:10:48;;;;;;;2.83;2.47;;;;;;;;;;5078217;28;20048;-88
2023/02/11 13:13:18;;;;;;;3.55;3.35;;;;;;;;;;5078082;28;20044;-89
2023/02/11 13:15:47;;;;;;;5.25;4.32;;;;;;;;;;5079150;28;20041;-89
2023/02/11 13:18:22;;;;;;;3.50;3.22;;;;;;;;;;5095912;28;20069;-88
2023/02/11 13:20:51;;;;;;;3.67;3.47;;;;;;;;;;5097753;28;20047;-86
2023/02/11 13:23:22;;;;;;;4.35;3.22;;;;;;;;;;5094989;28;20097;-87
2023/02/11 13:25:52;;;;;;;3.15;3.00;;;;;;;;;;5093504;28;20040;-88
2023/02/11 13:28:40;;;;;;;6.18;3.63;;;;;;;;;;5087962;28;20051;-86
2023/02/11 13:31:07;;;;;;;4.10;3.85;;;;;;;;;;5077169;28;20063;-88
2023/02/11 13:33:34;;;;;;;5.72;4.10;;;;;;;;;;5094588;28;20044;-89
2023/02/11 13:36:17;;;;;;;5.70;5.28;;;;;;;;;;5105456;28;20032;-88
2023/02/11 13:39:00;;;;;;;4.38;3.97;;;;;;;;;;5097236;28;20043;-88
2023/02/11 13:41:32;;;;;;;7.57;5.82;;;;;;;;;;5096908;28;20051;-88
2023/02/11 13:44:21;;;;;;;7.40;4.57;;;;;;;;;;5096369;28;20047;-88
2023/02/11 13:46:49;;;;;;;6.28;5.18;;;;;;;;;;5097981;28;20067;-88
2023/02/11 13:49:21;;;;;;;4.10;3.83;;;;;;;;;;5090989;28;20064;-88
2023/02/11 13:51:48;;;;;;;2.78;2.53;;;;;;;;;;5077415;28;20818;-87
2023/02/11 13:54:21;;;;;;;6.40;5.70;;;;;;;;;;5091519;28;20048;-87
2023/02/11 13:57:09;;;;;;;5.47;4.45;;;;;;;;;;5096398;28;20048;-88
2023/02/11 13:59:46;;;;;;;4.18;3.90;;;;;;;;;;5095393;28;20043;-88
2023/02/11 14:11:42;;;;;;;4.97;4.63;;;;;;;;;;4971853;28;20093;-87
2023/02/11 14:14:29;;;;;;;3.65;3.35;;;;;;;;;;4964542;28;20058;-87
2023/02/11 14:17:22;;;;;;;4.70;4.35;;;;;;;;;;4975020;28;20051;-87
2023/02/11 14:19:50;;;;;;;2.20;2.08;;;;;;;;;;4972660;28;20098;-86
2023/02/11 14:22:18;;;;;;;7.85;4.20;;;;;;;;;;4976901;28;20047;-87
2023/02/11 14:24:49;;;;;;;4.72;4.40;;;;;;;;;;4971061;28;20054;-88
2023/02/11 14:27:21;;;;;;;3.00;2.67;;;;;;;;;;4972214;28;20057;-87
2023/02/11 14:29:58;;;;;;;4.13;3.83;;;;;;;;;;4981115;28;20563;-87
2023/02/11 14:32:33;;;;;;;7.25;4.93;;;;;;;;;;4971886;28;20066;-87
2023/02/11 14:35:06;;;;;;;3.97;3.50;;;;;;;;;;4972090;28;20053;-88
2023/02/11 14:37:37;;;;;;;5.85;5.45;;;;;;;;;;4972396;28;20058;-88
2023/02/11 14:40:09;;;;;;;4.07;3.85;;;;;;;;;;5052553;28;20110;-87
2023/02/11 14:42:37;;;;;;;4.53;4.22;;;;;;;;;;5086696;28;20109;-87
2023/02/11 14:45:04;;;;;;;5.38;4.22;;;;;;;;;;5097112;28;20051;-88
2023/02/11 14:47:36;;;;;;;5.13;4.72;;;;;;;;;;5097278;28;20051;-88
2023/02/11 14:50:05;;;;;;;5.75;4.63;;;;;;;;;;5097533;28;20473;-87
2023/02/11 14:52:33;;;;;;;4.22;3.83;;;;;;;;;;5098004;28;20112;-88
2023/02/11 14:55:13;;;;;;;5.15;4.10;;;;;;;;;;5097001;28;20052;-88
2023/02/11 14:57:41;;;;;;;3.47;3.17;;;;;;;;;;5093768;28;20056;-89
2023/02/11 15:00:14;;;;;;;2.92;2.72;;;;;;;;;;5096207;28;20933;-87
2023/02/11 15:02:43;;;;;;;4.53;3.13;;;;;;;;;;5097719;28;20116;-87
2023/02/11 15:05:16;;;;;;;5.63;4.85;;;;;;;;;;5096778;28;20097;-87
2023/02/11 15:07:44;;;;;;;4.05;3.67;;;;;;;;;;5076797;28;20460;-86
2023/02/11 15:10:15;;;;;;;2.50;2.20;;;;;;;;;;5076436;28;20045;-87
2023/02/11 15:12:47;;;;;;;4.45;4.22;;;;;;;;;;5075077;28;20501;-88